Time;durP1;ratioP1;P1;durP2;ratioP2;P2;SDS_P1;SDS_P2;PMS_P1;PMS_P2;Temp;Humidity;BMP_temperature;BMP_pressure;BME280_temperature;BME280_humidity;BME280_pressure;Samples;Min_cycle;Max_cycle;Signal;HPM_P1;HPM_P2
2022/10/11 00:00:47;;;;;;;5.20;4.43;;;;;;;21.99;60.94;99078.56;2060777;28;20389;-68
2022/10/11 00:01:49;;;;;;;4.05;3.67;;;;;;;21.97;61.21;99073.34;2060930;28;20100;-68
2022/10/11 00:02:50;;;;;;;7.15;3.55;;;;;;;21.98;60.99;99080.44;2062126;28;20076;-68
2022/10/11 00:03:51;;;;;;;4.75;4.03;;;;;;;21.97;61.02;99078.75;2062065;28;20042;-68
2022/10/11 00:04:52;;;;;;;4.93;3.83;;;;;;;21.97;61.03;99076.06;2061235;28;20053;-68
2022/10/11 00:05:54;;;;;;;4.78;4.13;;;;;;;21.97;60.97;99084.16;2065594;28;20504;-68
2022/10/11 00:06:54;;;;;;;5.13;4.13;;;;;;;21.96;61.17;99077.09;2060611;28;20052;-67
2022/10/11 00:07:56;;;;;;;4.07;3.70;;;;;;;21.98;60.83;99079.56;2064681;28;20052;-68
2022/10/11 00:08:57;;;;;;;4.25;3.85;;;;;;;21.96;61.09;99071.72;2062744;28;20503;-68
2022/10/11 00:09:59;;;;;;;4.63;3.40;;;;;;;21.98;61.20;99074.19;2062490;28;20047;-68
2022/10/11 00:11:05;;;;;;;5.28;4.22;;;;;;;21.97;61.09;99072.53;2064104;28;20438;-68
2022/10/11 00:12:07;;;;;;;5.13;4.00;;;;;;;21.97;61.21;99072.53;2061846;28;21408;-67
2022/10/11 00:13:07;;;;;;;4.47;3.70;;;;;;;21.96;60.98;99071.72;2057577;28;20050;-68
2022/10/11 00:14:10;;;;;;;4.20;3.80;;;;;;;21.97;61.17;99072.53;2054324;28;20528;-68
2022/10/11 00:15:12;;;;;;;4.07;3.63;;;;;;;21.97;61.14;99069.81;2055079;28;20056;-68
2022/10/11 00:16:14;;;;;;;4.75;3.50;;;;;;;21.97;60.96;99072.53;2053563;28;20158;-68
2022/10/11 00:17:15;;;;;;;4.00;3.28;;;;;;;21.97;61.05;99072.53;2051368;28;20541;-68
2022/10/11 00:18:16;;;;;;;4.40;3.60;;;;;;;21.96;61.15;99076.28;2054328;28;20053;-68
2022/10/11 00:19:17;;;;;;;4.38;3.97;;;;;;;21.97;60.98;99078.75;2054243;28;20124;-68
2022/10/11 00:20:19;;;;;;;;;;;;;;;21.85;61.31;99069.69;2056902;28;20105;-68
2022/10/11 00:21:20;;;;;;;4.93;3.72;;;;;;;21.91;61.34;99070.69;2052412;28;19930;-68
2022/10/11 00:22:22;;;;;;;5.20;4.65;;;;;;;21.92;61.34;99067.75;2053748;28;20053;-69
2022/10/11 00:23:23;;;;;;;4.57;3.92;;;;;;;21.94;61.14;99068.38;2053871;28;20521;-68
2022/10/11 00:24:24;;;;;;;4.90;3.90;;;;;;;21.95;61.03;99069.22;2053167;28;20055;-68
2022/10/11 00:25:26;;;;;;;3.67;3.38;;;;;;;21.96;60.83;99070.88;2050696;28;20062;-68
2022/10/11 00:26:28;;;;;;;4.15;3.40;;;;;;;21.97;60.96;99067.94;2053681;28;22262;-68
2022/10/11 00:27:30;;;;;;;4.68;3.67;;;;;;;21.95;61.11;99066.50;2054552;28;20050;-68
2022/10/11 00:28:31;;;;;;;3.35;3.05;;;;;;;21.96;60.93;99069.00;2052611;28;20409;-68
2022/10/11 00:29:33;;;;;;;4.57;4.13;;;;;;;21.95;61.26;99071.91;2052897;28;20054;-68
2022/10/11 00:30:34;;;;;;;4.78;4.20;;;;;;;21.96;61.12;99070.88;2056533;28;20061;-68
2022/10/11 00:31:36;;;;;;;4.30;3.90;;;;;;;21.95;60.89;99071.91;2056885;28;20134;-68
2022/10/11 00:32:38;;;;;;;5.53;4.00;;;;;;;21.95;61.16;99069.22;2055214;28;20093;-68
2022/10/11 00:33:40;;;;;;;4.28;3.78;;;;;;;21.96;61.05;99068.19;2049972;28;20177;-67
2022/10/11 00:34:40;;;;;;;4.80;3.95;;;;;;;21.96;61.14;99073.59;2053010;28;20550;-68
2022/10/11 00:35:42;;;;;;;4.38;3.97;;;;;;;21.95;61.08;99074.59;2054735;28;20050;-68
2022/10/11 00:36:44;;;;;;;4.68;4.20;;;;;;;21.95;61.02;99075.44;2058311;28;20042;-68
2022/10/11 00:37:46;;;;;;;4.00;3.60;;;;;;;21.94;61.00;99076.50;2054526;28;20042;-68
2022/10/11 00:38:47;;;;;;;4.10;3.60;;;;;;;21.95;61.23;99074.59;2055441;28;20092;-68
2022/10/11 00:39:49;;;;;;;4.57;4.18;;;;;;;21.97;61.15;99072.53;2054898;28;20100;-68
2022/10/11 00:40:50;;;;;;;3.55;3.15;;;;;;;21.97;60.97;99075.22;2054197;28;20217;-68
2022/10/11 00:41:54;;;;;;;4.28;3.85;;;;;;;21.95;60.90;99070.03;2054453;28;20427;-68
2022/10/11 00:42:55;;;;;;;4.18;3.78;;;;;;;21.95;61.21;99074.59;2052349;28;20515;-67
2022/10/11 00:44:16;;;;;;;3.83;3.10;;;;;;;21.91;61.06;99074.22;2052181;28;20140;-67
2022/10/11 00:45:56;;;;;;;3.80;3.30;;;;;;;21.88;61.28;99069.25;2057091;28;20511;-68
2022/10/11 00:47:01;;;;;;;4.72;3.88;;;;;;;21.87;61.50;99067.59;2052791;28;20097;-68
2022/10/11 00:48:08;;;;;;;4.78;3.47;;;;;;;21.89;61.41;99076.28;2053179;28;20521;-68
2022/10/11 00:49:25;;;;;;;4.05;3.60;;;;;;;21.89;61.45;99070.06;2053217;28;20136;-68
2022/10/11 00:50:29;;;;;;;4.38;3.63;;;;;;;21.89;61.41;99068.19;2052889;28;20054;-68
2022/10/11 00:51:52;;;;;;;4.57;3.58;;;;;;;21.88;61.41;99069.25;2053352;28;20132;-68
2022/10/11 00:52:56;;;;;;;4.13;3.40;;;;;;;21.89;61.30;99070.91;2051989;28;20046;-68
2022/10/11 00:54:00;;;;;;;4.30;3.90;;;;;;;21.90;61.26;99072.56;2053537;28;20062;-68
2022/10/11 00:55:04;;;;;;;4.60;4.10;;;;;;;21.93;61.31;99071.31;2055354;28;20064;-68
2022/10/11 00:56:10;;;;;;;3.55;3.25;;;;;;;21.91;61.32;99074.22;2053930;28;20180;-68
2022/10/11 00:57:16;;;;;;;3.80;3.40;;;;;;;21.92;61.25;99064.25;2053847;28;20061;-68
2022/10/11 00:58:20;;;;;;;5.40;3.45;;;;;;;21.91;61.24;99068.81;2054151;28;20130;-68
2022/10/11 00:59:24;;;;;;;4.63;3.75;;;;;;;21.92;61.35;99075.03;2054312;28;20046;-68
2022/10/11 01:00:25;;;;;;;5.13;4.43;;;;;;;21.91;61.34;99068.81;2056502;28;20129;-68
2022/10/11 01:01:26;;;;;;;6.70;3.90;;;;;;;21.92;61.29;99066.94;2054003;28;20050;-68
2022/10/11 01:02:29;;;;;;;4.32;3.45;;;;;;;21.92;61.09;99064.25;2055784;28;20205;-68
2022/10/11 01:03:30;;;;;;;5.53;3.85;;;;;;;21.91;61.32;99066.13;2053526;28;20046;-68
2022/10/11 01:04:32;;;;;;;6.10;3.40;;;;;;;21.92;61.18;99065.06;2052374;28;20051;-68
2022/10/11 01:05:36;;;;;;;3.53;3.22;;;;;;;21.93;61.12;99069.44;2054654;28;20053;-68
2022/10/11 01:06:38;;;;;;;4.30;3.80;;;;;;;21.91;61.27;99062.59;2054339;28;20057;-68
2022/10/11 01:07:40;;;;;;;4.97;3.85;;;;;;;21.91;61.29;99068.81;2053865;28;20089;-67
2022/10/11 01:08:43;;;;;;;4.60;4.20;;;;;;;21.91;61.20;99065.28;2050698;28;20579;-68
2022/10/11 01:09:44;;;;;;;3.38;3.00;;;;;;;21.90;61.19;99058.22;2051374;28;20482;-68
2022/10/11 01:10:45;;;;;;;6.03;4.30;;;;;;;21.91;61.02;99063.41;2055060;28;20050;-68
2022/10/11 01:11:47;;;;;;;4.57;4.00;;;;;;;21.92;61.22;99058.84;2053263;28;20843;-68
2022/10/11 01:13:03;;;;;;;4.80;3.50;;;;;;;21.90;61.36;99066.31;2050845;28;20076;-68
2022/10/11 01:14:28;;;;;;;4.28;3.50;;;;;;;21.86;61.20;99063.22;2054206;28;20054;-68
2022/10/11 01:15:39;;;;;;;4.00;3.58;;;;;;;21.87;61.12;99059.50;2053499;28;21338;-68
2022/10/11 01:16:51;;;;;;;4.22;3.60;;;;;;;21.88;61.02;99060.31;2058941;28;20057;-68
2022/10/11 01:18:00;;;;;;;3.35;3.05;;;;;;;21.87;61.28;99062.19;2052057;28;20053;-68
2022/10/11 01:19:13;;;;;;;5.55;3.83;;;;;;;21.86;61.20;99061.34;2052700;28;20758;-68
2022/10/11 01:20:35;;;;;;;4.05;3.60;;;;;;;21.84;61.22;99051.81;2051380;28;20050;-68
2022/10/11 01:21:45;;;;;;;3.75;3.45;;;;;;;21.86;61.29;99052.41;2053616;28;20176;-68
2022/10/11 01:23:08;;;;;;;4.80;4.03;;;;;;;21.85;61.56;99054.31;2051781;28;20204;-68
2022/10/11 01:24:32;;;;;;;4.00;3.65;;;;;;;21.84;61.43;99052.66;2059982;28;20074;-68
2022/10/11 01:25:40;;;;;;;4.55;3.83;;;;;;;21.86;61.44;99055.13;2061046;28;20172;-68
2022/10/11 01:27:14;;;;;;;3.58;3.25;;;;;;;21.83;61.46;99050.16;2053646;28;20059;-68
2022/10/11 01:28:32;;;;;;;5.10;4.18;;;;;;;21.81;61.56;99047.69;2052863;28;20113;-68
2022/10/11 01:29:46;;;;;;;4.45;4.05;;;;;;;21.84;61.31;99049.97;2054054;28;20523;-68
2022/10/11 01:30:50;;;;;;;4.07;3.38;;;;;;;21.85;61.26;99050.78;2054953;28;20817;-68
2022/10/11 01:31:57;;;;;;;4.65;3.83;;;;;;;21.85;61.15;99048.06;2056099;28;20062;-68
2022/10/11 01:33:16;;;;;;;4.07;3.72;;;;;;;21.84;61.48;99049.09;2037873;28;20977;-66
2022/10/11 01:34:32;;;;;;;3.80;3.50;;;;;;;21.83;61.27;99047.47;2052039;28;20157;-65
2022/10/11 01:35:38;;;;;;;4.22;3.83;;;;;;;21.82;61.48;99043.94;2051767;28;20073;-65
2022/10/11 01:36:47;;;;;;;4.38;3.67;;;;;;;21.86;61.29;99049.72;2055580;28;20490;-66
2022/10/11 01:37:54;;;;;;;4.63;3.75;;;;;;;21.84;61.21;99041.84;2059818;28;20458;-66
2022/10/11 01:39:01;;;;;;;3.95;3.55;;;;;;;21.84;61.32;99041.84;2049924;28;20120;-66
2022/10/11 01:40:08;;;;;;;4.78;4.18;;;;;;;21.85;61.24;99042.69;2052197;28;20433;-66
2022/10/11 01:41:14;;;;;;;4.78;3.47;;;;;;;21.85;61.32;99048.06;2053268;28;20060;-66
2022/10/11 01:42:17;;;;;;;4.15;3.70;;;;;;;21.86;61.11;99038.91;2055370;28;20049;-65
2022/10/11 01:43:20;;;;;;;4.45;4.00;;;;;;;21.86;61.37;99038.91;2053959;28;20061;-66
2022/10/11 01:44:24;;;;;;;5.13;3.80;;;;;;;21.87;61.60;99040.59;2054431;28;20096;-66
2022/10/11 01:45:27;;;;;;;3.95;3.53;;;;;;;21.87;61.21;99037.91;2052988;28;20046;-66
2022/10/11 01:46:30;;;;;;;4.40;3.72;;;;;;;21.89;61.03;99040.38;2050485;28;20633;-66
2022/10/11 01:47:32;;;;;;;4.70;4.18;;;;;;;21.86;61.06;99038.91;2055927;28;20084;-66
2022/10/11 01:48:32;;;;;;;4.68;3.50;;;;;;;21.86;61.08;99037.03;2052612;28;20050;-66
2022/10/11 01:49:34;;;;;;;3.72;3.38;;;;;;;21.87;61.33;99040.59;2054729;28;20527;-66
2022/10/11 01:50:39;;;;;;;4.18;3.78;;;;;;;21.87;60.98;99035.19;2054721;28;20050;-66
2022/10/11 01:51:45;;;;;;;4.35;3.95;;;;;;;21.86;61.28;99033.53;2055170;28;20042;-66
2022/10/11 01:52:47;;;;;;;3.63;3.22;;;;;;;21.86;61.11;99034.34;2057740;28;20050;-66
2022/10/11 01:54:03;;;;;;;4.18;3.78;;;;;;;21.86;61.23;99034.34;2058016;28;20045;-66
2022/10/11 01:55:21;;;;;;;4.00;3.60;;;;;;;21.81;61.40;99030.63;2053195;28;20065;-65
2022/10/11 01:56:38;;;;;;;3.75;3.45;;;;;;;21.82;61.34;99033.13;2053755;28;20050;-65
2022/10/11 01:58:09;;;;;;;2.97;2.67;;;;;;;21.80;61.43;99020.88;2049994;28;20168;-65
2022/10/11 01:59:18;;;;;;;;;;;;;;;21.68;61.57;99014.53;2058023;28;20046;-66
2022/10/11 02:00:22;;;;;;;4.18;3.40;;;;;;;21.75;61.63;99026.91;2053891;28;20414;-66
2022/10/11 02:01:31;;;;;;;3.55;3.17;;;;;;;21.76;61.34;99023.19;2058502;28;20693;-65
2022/10/11 02:02:53;;;;;;;4.38;3.85;;;;;;;21.79;61.37;99033.56;2058785;28;20659;-66
2022/10/11 02:04:02;;;;;;;4.35;3.60;;;;;;;21.79;61.29;99022.75;2056558;28;20046;-66
2022/10/11 02:05:12;;;;;;;4.18;3.78;;;;;;;21.80;61.53;99019.00;2058913;28;20404;-65
2022/10/11 02:06:19;;;;;;;3.60;3.25;;;;;;;21.81;61.28;99026.09;2048934;28;20058;-66
2022/10/11 02:07:24;;;;;;;4.50;3.70;;;;;;;21.82;61.23;99026.91;2062290;28;20093;-65
2022/10/11 02:08:35;;;;;;;3.92;3.53;;;;;;;21.82;61.20;99024.22;2056818;28;20749;-66
2022/10/11 02:09:45;;;;;;;4.65;3.58;;;;;;;21.81;61.29;99030.63;2055632;28;20049;-66
2022/10/11 02:10:52;;;;;;;4.30;3.15;;;;;;;21.82;61.25;99033.13;2049187;28;20412;-65
2022/10/11 02:12:01;;;;;;;3.70;3.35;;;;;;;21.81;61.29;99023.38;2054172;28;20533;-65
2022/10/11 02:13:07;;;;;;;4.07;3.78;;;;;;;21.83;61.42;99025.84;2052147;28;20136;-65
2022/10/11 02:14:13;;;;;;;4.68;4.22;;;;;;;21.83;61.49;99025.84;2052815;28;20077;-65
2022/10/11 02:15:16;;;;;;;4.40;3.97;;;;;;;21.82;61.25;99026.91;2054130;28;20054;-65
2022/10/11 02:16:23;;;;;;;4.22;3.83;;;;;;;21.82;61.10;99022.34;2053358;28;20140;-66
2022/10/11 02:17:29;;;;;;;3.95;3.60;;;;;;;21.82;61.11;99022.34;2059134;28;20102;-66
2022/10/11 02:18:36;;;;;;;3.55;3.25;;;;;;;21.83;61.28;99023.16;2054490;28;20042;-66
2022/10/11 02:19:41;;;;;;;3.40;3.10;;;;;;;21.81;61.12;99025.22;2051464;28;20103;-66
2022/10/11 02:20:45;;;;;;;4.05;3.65;;;;;;;21.82;61.51;99026.91;2054801;28;20137;-65
2022/10/11 02:21:51;;;;;;;4.22;3.83;;;;;;;21.83;61.09;99028.56;2054725;28;20038;-66
2022/10/11 02:22:59;;;;;;;4.50;3.67;;;;;;;21.83;61.43;99023.16;2056761;28;20521;-65
2022/10/11 02:24:04;;;;;;;3.83;3.50;;;;;;;21.83;61.19;99025.84;2057516;28;20049;-66
2022/10/11 02:25:10;;;;;;;4.13;3.70;;;;;;;21.82;61.17;99027.72;2055704;28;20042;-66
2022/10/11 02:26:13;;;;;;;4.38;3.85;;;;;;;21.83;61.47;99025.84;2049712;28;20061;-66
2022/10/11 02:27:18;;;;;;;4.47;4.07;;;;;;;21.84;61.17;99035.59;2058810;28;20055;-65
2022/10/11 02:28:24;;;;;;;4.30;3.90;;;;;;;21.82;61.49;99026.91;2055945;28;20046;-66
2022/10/11 02:29:30;;;;;;;4.40;4.00;;;;;;;21.81;61.25;99019.84;2058179;28;20076;-65
2022/10/11 02:30:33;;;;;;;3.35;3.05;;;;;;;21.81;61.36;99027.94;2058809;28;20066;-66
2022/10/11 02:31:36;;;;;;;3.95;3.58;;;;;;;21.82;61.15;99024.22;2059867;28;20062;-66
2022/10/11 02:32:40;;;;;;;4.13;3.72;;;;;;;21.82;61.15;99024.22;2057926;28;20073;-66
2022/10/11 02:33:48;;;;;;;4.35;3.78;;;;;;;21.82;61.20;99021.50;2054011;28;20050;-65
2022/10/11 02:34:52;;;;;;;4.13;3.72;;;;;;;21.81;61.13;99026.09;2047259;28;20065;-66
2022/10/11 02:36:07;;;;;;;4.40;3.78;;;;;;;21.82;61.16;99021.50;2058903;28;20693;-65
2022/10/11 02:37:14;;;;;;;3.90;3.60;;;;;;;21.81;61.17;99027.94;2054290;28;20077;-65
2022/10/11 02:38:20;;;;;;;4.32;3.90;;;;;;;21.80;61.26;99021.72;2060243;28;20050;-66
2022/10/11 02:39:27;;;;;;;4.07;3.67;;;;;;;21.79;61.38;99022.75;2056545;28;20076;-66
2022/10/11 02:40:31;;;;;;;3.80;3.45;;;;;;;21.80;61.44;99029.81;2058331;28;20054;-66
2022/10/11 02:41:38;;;;;;;3.67;3.38;;;;;;;21.81;61.05;99026.09;2057353;28;21458;-65
2022/10/11 02:42:44;;;;;;;4.45;3.65;;;;;;;21.81;61.21;99019.84;2057628;28;20050;-66
2022/10/11 02:43:51;;;;;;;4.43;3.75;;;;;;;21.81;61.20;99019.84;2056381;28;20043;-66
2022/10/11 02:45:03;;;;;;;3.95;3.63;;;;;;;21.78;61.41;99020.25;2048174;28;20491;-66
2022/10/11 02:46:06;;;;;;;4.25;3.53;;;;;;;21.81;61.26;99019.84;2052342;28;20503;-65
2022/10/11 02:47:08;;;;;;;3.38;3.08;;;;;;;21.80;61.22;99021.72;2051800;28;20116;-65
2022/10/11 02:48:12;;;;;;;4.78;4.13;;;;;;;21.80;61.46;99020.88;2051137;28;20070;-66
2022/10/11 02:49:17;;;;;;;3.72;3.38;;;;;;;21.79;61.42;99019.25;2057061;28;20042;-66
2022/10/11 02:50:20;;;;;;;4.43;4.00;;;;;;;21.79;61.32;99019.25;2049722;28;20054;-66
2022/10/11 02:51:22;;;;;;;3.65;3.20;;;;;;;21.78;61.29;99025.66;2055236;28;21242;-65
2022/10/11 02:52:25;;;;;;;4.28;3.88;;;;;;;21.80;61.19;99027.09;2050230;28;20053;-66
2022/10/11 02:53:27;;;;;;;4.38;3.70;;;;;;;21.81;61.35;99027.94;2056489;28;20046;-66
2022/10/11 02:54:28;;;;;;;4.35;3.95;;;;;;;21.78;61.31;99020.25;2052870;28;24216;-66
2022/10/11 02:55:29;;;;;;;;;;;;;;;21.69;61.43;99026.97;2054660;28;20053;-66
2022/10/11 02:56:30;;;;;;;4.05;3.65;;;;;;;21.72;61.30;99029.22;2050692;28;20766;-66
2022/10/11 02:57:31;;;;;;;;;;;;;;;21.63;61.84;99029.47;2054562;28;20058;-66
2022/10/11 02:58:32;;;;;;;3.28;2.83;;;;;;;21.67;61.56;99016.38;2053897;28;19972;-66
2022/10/11 02:59:34;;;;;;;;;;;;;;;21.61;61.78;99025.31;2054341;28;20267;-65
2022/10/11 03:00:34;;;;;;;3.25;2.95;;;;;;;21.67;61.49;99021.75;2048817;28;19937;-66
2022/10/11 03:01:36;;;;;;;4.35;3.95;;;;;;;21.71;61.41;99022.19;2052570;28;20434;-65
2022/10/11 03:02:37;;;;;;;4.22;3.65;;;;;;;;;;2054391;28;20750;-66
2022/10/11 03:03:39;;;;;;;4.50;4.10;;;;;;;21.76;61.33;99023.19;2062220;28;20054;-65
2022/10/11 03:04:41;;;;;;;4.28;3.88;;;;;;;21.77;61.43;99018.63;2054385;28;20052;-65
2022/10/11 03:05:43;;;;;;;4.65;3.78;;;;;;;21.78;61.05;99018.38;2053355;28;20054;-66
2022/10/11 03:06:44;;;;;;;3.92;3.55;;;;;;;21.79;61.05;99016.53;2054469;28;20427;-65
2022/10/11 03:07:45;;;;;;;3.83;3.53;;;;;;;21.80;61.26;99026.28;2053897;28;20050;-66
2022/10/11 03:08:46;;;;;;;5.22;4.38;;;;;;;21.79;60.98;99027.34;2056139;28;20049;-65
2022/10/11 03:09:48;;;;;;;3.80;3.08;;;;;;;21.76;61.23;99016.97;2053638;28;20039;-66
2022/10/11 03:10:49;;;;;;;4.32;3.60;;;;;;;21.79;61.26;99027.34;2054330;28;20929;-66
2022/10/11 03:11:51;;;;;;;4.28;3.55;;;;;;;21.80;61.06;99026.28;2053768;28;20468;-66
2022/10/11 03:12:51;;;;;;;3.47;2.92;;;;;;;21.77;61.13;99024.84;2057710;28;20539;-66
2022/10/11 03:13:53;;;;;;;4.15;3.60;;;;;;;21.78;61.14;99028.38;2055436;28;20096;-66
2022/10/11 03:14:54;;;;;;;4.60;3.50;;;;;;;21.78;61.36;99023.78;2055996;28;20169;-66
2022/10/11 03:15:56;;;;;;;3.92;3.38;;;;;;;21.78;61.22;99025.66;2053951;28;20418;-65
2022/10/11 03:16:57;;;;;;;4.03;3.33;;;;;;;21.77;61.07;99024.03;2053277;28;20149;-66
2022/10/11 03:17:59;;;;;;;3.78;3.45;;;;;;;21.77;61.31;99019.44;2053641;28;20419;-66
2022/10/11 03:18:59;;;;;;;3.17;2.90;;;;;;;21.77;61.34;99022.13;2055388;28;20050;-65
2022/10/11 03:20:03;;;;;;;6.80;4.45;;;;;;;21.77;60.90;99014.03;2056194;28;20074;-66
2022/10/11 03:21:04;;;;;;;4.18;3.83;;;;;;;21.77;60.98;99015.91;2052861;28;20057;-66
2022/10/11 03:22:06;;;;;;;3.72;3.42;;;;;;;21.76;61.08;99023.19;2050763;28;20100;-66
2022/10/11 03:23:06;;;;;;;4.70;3.92;;;;;;;21.78;61.05;99018.38;2053854;28;20176;-65
2022/10/11 03:24:08;;;;;;;4.05;3.65;;;;;;;21.78;61.00;99025.66;2054732;28;22416;-65
2022/10/11 03:25:09;;;;;;;4.18;3.80;;;;;;;21.78;61.03;99022.97;2054932;28;20277;-66
2022/10/11 03:26:11;;;;;;;4.07;3.63;;;;;;;21.77;60.97;99022.13;2055172;28;20518;-66
2022/10/11 03:27:12;;;;;;;4.15;3.72;;;;;;;21.76;60.98;99022.38;2053968;28;20104;-65
2022/10/11 03:28:14;;;;;;;4.60;3.50;;;;;;;21.78;61.25;99025.66;2054407;28;20101;-65
2022/10/11 03:29:14;;;;;;;4.30;3.90;;;;;;;21.78;60.97;99025.66;2052538;28;20058;-66
2022/10/11 03:30:16;;;;;;;4.82;3.42;;;;;;;21.77;60.96;99022.13;2053560;28;21058;-66
2022/10/11 03:31:17;;;;;;;4.07;3.78;;;;;;;21.77;61.21;99026.72;2053206;28;20530;-66
2022/10/11 03:32:19;;;;;;;4.93;3.53;;;;;;;21.77;60.99;99027.53;2049917;28;20049;-66
2022/10/11 03:33:20;;;;;;;3.58;3.28;;;;;;;21.80;61.22;99023.59;2054896;28;20061;-66
2022/10/11 03:34:22;;;;;;;4.13;3.72;;;;;;;21.78;60.82;99025.66;2057702;28;20125;-66
2022/10/11 03:35:24;;;;;;;3.95;3.47;;;;;;;21.78;61.07;99022.97;2054108;28;20050;-66
2022/10/11 03:36:26;;;;;;;4.53;4.03;;;;;;;21.76;61.01;99031.28;2053674;28;20045;-65
2022/10/11 03:37:27;;;;;;;5.38;4.40;;;;;;;21.74;61.07;99022.56;2056003;28;21111;-66
2022/10/11 03:38:29;;;;;;;3.67;3.38;;;;;;;21.76;61.33;99023.19;2054667;28;20058;-66
2022/10/11 03:39:29;;;;;;;5.05;4.60;;;;;;;21.76;61.31;99025.06;2053057;28;20049;-66
2022/10/11 03:40:31;;;;;;;4.07;3.67;;;;;;;21.75;61.16;99026.91;2053475;28;20053;-66
2022/10/11 03:41:32;;;;;;;3.72;3.25;;;;;;;21.75;61.31;99028.78;2053559;28;20054;-66
2022/10/11 03:42:34;;;;;;;3.60;3.30;;;;;;;21.76;61.05;99027.78;2054456;28;21345;-65
2022/10/11 03:43:35;;;;;;;4.18;3.85;;;;;;;21.75;61.26;99023.41;2055907;28;20060;-66
2022/10/11 03:44:37;;;;;;;4.82;4.30;;;;;;;21.76;61.04;99027.78;2054823;28;20721;-65
2022/10/11 03:45:41;;;;;;;5.30;3.58;;;;;;;21.76;61.10;99033.19;2054536;28;20069;-66
2022/10/11 03:46:42;;;;;;;5.38;4.30;;;;;;;21.75;61.01;99021.53;2054820;28;20068;-65
2022/10/11 03:47:43;;;;;;;3.97;3.58;;;;;;;21.76;61.21;99033.19;2054464;28;20444;-66
2022/10/11 03:48:45;;;;;;;4.55;4.07;;;;;;;21.76;61.08;99031.28;2052522;28;20080;-66
2022/10/11 03:49:46;;;;;;;4.05;3.50;;;;;;;21.76;61.13;99033.19;2056144;28;20052;-66
2022/10/11 03:50:49;;;;;;;;;;;;;;;21.63;61.61;99029.47;2055424;28;20115;-66
2022/10/11 03:51:50;;;;;;;3.47;3.17;;;;;;;21.66;61.51;99030.09;2054258;28;19925;-65
2022/10/11 03:52:52;;;;;;;3.90;3.53;;;;;;;21.69;61.40;99032.38;2060693;28;20266;-66
2022/10/11 03:53:52;;;;;;;3.90;3.45;;;;;;;21.73;61.34;99041.69;2060565;28;20058;-66
2022/10/11 03:54:54;;;;;;;4.85;3.70;;;;;;;21.72;61.09;99031.94;2052653;28;20046;-65
2022/10/11 03:55:55;;;;;;;3.72;3.42;;;;;;;21.74;61.50;99037.94;2057102;28;20339;-65
2022/10/11 03:56:58;;;;;;;3.97;3.63;;;;;;;21.74;61.08;99040.66;2051468;28;20789;-65
2022/10/11 03:57:58;;;;;;;4.03;3.63;;;;;;;;;;2054848;28;20073;-66
2022/10/11 03:59:01;;;;;;;3.97;3.58;;;;;;;21.74;61.00;99036.06;2050779;28;21766;-65
2022/10/11 04:00:01;;;;;;;4.93;4.22;;;;;;;21.74;61.18;99035.25;2054346;28;20640;-66
2022/10/11 04:01:03;;;;;;;3.30;3.00;;;;;;;21.73;61.17;99038.97;2053777;28;20065;-65
2022/10/11 04:02:04;;;;;;;3.65;3.35;;;;;;;21.73;61.23;99036.28;2054151;28;20054;-65
2022/10/11 04:03:06;;;;;;;4.03;3.72;;;;;;;21.74;60.94;99040.66;2053356;28;20050;-66
2022/10/11 04:04:07;;;;;;;4.22;3.75;;;;;;;21.74;61.07;99035.25;2053540;28;20097;-66
2022/10/11 04:05:09;;;;;;;6.40;3.78;;;;;;;21.74;61.18;99038.78;2057183;28;20058;-66
2022/10/11 04:06:12;;;;;;;4.63;4.10;;;;;;;21.74;61.04;99044.19;2057251;28;20057;-66
2022/10/11 04:07:13;;;;;;;4.30;3.88;;;;;;;21.74;61.13;99040.66;2051402;28;20081;-66
2022/10/11 04:08:14;;;;;;;4.53;4.13;;;;;;;21.74;61.16;99040.66;2057931;28;20057;-65
2022/10/11 04:09:16;;;;;;;3.90;3.60;;;;;;;21.75;61.23;99045.00;2058039;28;20538;-66
2022/10/11 04:10:17;;;;;;;3.35;3.05;;;;;;;;;;2054426;28;20425;-66
2022/10/11 04:11:18;;;;;;;3.72;3.42;;;;;;;;;;2053374;28;20165;-65
2022/10/11 04:12:19;;;;;;;4.32;3.92;;;;;;;21.71;61.37;99046.47;2052907;28;20089;-65
2022/10/11 04:13:21;;;;;;;4.32;3.92;;;;;;;21.72;61.29;99042.72;2052796;28;20675;-66
2022/10/11 04:14:21;;;;;;;4.22;3.83;;;;;;;;;;2053507;28;20050;-66
2022/10/11 04:15:23;;;;;;;5.10;4.13;;;;;;;;;;2053186;28;20085;-66
2022/10/11 04:16:24;;;;;;;4.72;4.28;;;;;;;21.72;61.09;99053.53;2053333;28;20654;-66
2022/10/11 04:17:26;;;;;;;3.95;3.63;;;;;;;21.70;61.27;99044.81;2050712;28;20042;-66
2022/10/11 04:18:26;;;;;;;4.22;3.55;;;;;;;21.71;61.41;99043.78;2054161;28;20984;-65
2022/10/11 04:19:28;;;;;;;3.97;3.45;;;;;;;21.72;61.34;99048.13;2052705;28;20156;-66
2022/10/11 04:20:29;;;;;;;5.10;3.67;;;;;;;;;;2052465;28;20110;-65
2022/10/11 04:21:32;;;;;;;3.67;3.38;;;;;;;21.71;61.46;99041.91;2057042;28;20563;-66
2022/10/11 04:22:33;;;;;;;4.15;3.15;;;;;;;21.71;61.22;99044.59;2053621;28;20058;-66
2022/10/11 04:23:35;;;;;;;4.68;4.28;;;;;;;21.72;61.37;99042.72;2054597;28;20097;-65
2022/10/11 04:24:35;;;;;;;3.90;3.50;;;;;;;21.71;61.18;99041.91;2053233;28;20049;-65
2022/10/11 04:25:38;;;;;;;4.85;4.35;;;;;;;21.73;61.17;99047.06;2054044;28;21131;-66
2022/10/11 04:26:39;;;;;;;4.25;3.85;;;;;;;21.70;61.10;99042.94;2054245;28;20179;-66
2022/10/11 04:27:41;;;;;;;3.72;3.33;;;;;;;21.71;61.49;99043.78;2051839;28;20518;-66
2022/10/11 04:28:42;;;;;;;5.13;4.05;;;;;;;21.70;61.27;99047.50;2053769;28;20542;-65
2022/10/11 04:29:43;;;;;;;4.80;3.55;;;;;;;;;;2053541;28;20045;-65
2022/10/11 04:30:44;;;;;;;3.42;3.13;;;;;;;21.72;61.29;99048.13;2054846;28;20057;-65
2022/10/11 04:31:45;;;;;;;4.93;4.43;;;;;;;21.72;61.18;99045.44;2054881;28;20045;-66
2022/10/11 04:32:46;;;;;;;4.15;3.65;;;;;;;21.71;61.19;99041.09;2053519;28;20049;-66
2022/10/11 04:33:48;;;;;;;3.60;3.30;;;;;;;21.71;61.21;99038.38;2054262;28;20109;-65
2022/10/11 04:34:50;;;;;;;3.97;3.58;;;;;;;21.69;61.19;99041.28;2052452;28;20128;-66
2022/10/11 04:35:53;;;;;;;3.63;3.33;;;;;;;21.71;61.14;99046.47;2051718;28;20061;-65
2022/10/11 04:36:55;;;;;;;5.15;3.65;;;;;;;21.70;61.19;99051.03;2061615;28;20462;-67
2022/10/11 04:37:57;;;;;;;3.30;3.00;;;;;;;21.71;61.20;99047.31;2053270;28;20389;-65
2022/10/11 04:39:00;;;;;;;3.95;3.55;;;;;;;21.71;61.19;99049.19;2053918;28;20054;-65
2022/10/11 04:40:02;;;;;;;4.20;3.80;;;;;;;21.68;61.29;99047.72;2055525;28;20499;-66
2022/10/11 04:41:07;;;;;;;3.45;3.13;;;;;;;21.71;61.32;99050.00;2053468;28;20054;-66
2022/10/11 04:42:09;;;;;;;3.67;3.38;;;;;;;21.69;61.21;99048.56;2054656;28;20057;-66
2022/10/11 04:43:10;;;;;;;6.05;4.35;;;;;;;21.70;61.40;99050.19;2053041;28;20046;-65
2022/10/11 04:44:12;;;;;;;3.22;3.00;;;;;;;21.68;61.31;99052.31;2054397;28;20661;-65
2022/10/11 04:45:13;;;;;;;3.83;3.38;;;;;;;21.69;61.21;99053.97;2053494;28;20054;-66
2022/10/11 04:46:14;;;;;;;4.45;3.90;;;;;;;21.70;61.28;99058.31;2056432;28;20078;-65
2022/10/11 04:47:15;;;;;;;3.75;3.45;;;;;;;21.68;61.38;99052.31;2053254;28;20100;-66
2022/10/11 04:48:17;;;;;;;4.13;3.47;;;;;;;21.69;61.22;99053.97;2053612;28;20058;-66
2022/10/11 04:49:18;;;;;;;4.20;3.80;;;;;;;21.70;61.28;99051.03;2053681;28;20045;-65
2022/10/11 04:50:20;;;;;;;3.58;3.28;;;;;;;21.68;61.23;99060.41;2057813;28;20853;-65
2022/10/11 04:51:21;;;;;;;3.75;3.45;;;;;;;21.69;61.22;99054.78;2052030;28;20100;-66
2022/10/11 04:52:24;;;;;;;4.63;3.90;;;;;;;21.67;61.30;99056.03;2059856;28;20541;-65
2022/10/11 04:53:25;;;;;;;5.85;3.67;;;;;;;21.69;61.17;99062.06;2052628;28;20050;-65
2022/10/11 04:54:27;;;;;;;4.03;3.72;;;;;;;21.70;61.10;99064.53;2053485;28;20426;-66
2022/10/11 04:55:29;;;;;;;4.15;3.60;;;;;;;21.68;61.26;99055.00;2048993;28;20205;-65
2022/10/11 04:56:29;;;;;;;4.20;3.80;;;;;;;21.67;61.30;99054.16;2053832;28;20053;-65
2022/10/11 04:57:31;;;;;;;3.88;3.55;;;;;;;21.69;61.29;99056.66;2053329;28;21315;-65
2022/10/11 04:58:34;;;;;;;4.30;3.90;;;;;;;21.69;60.92;99053.97;2055559;28;20050;-66
2022/10/11 04:59:35;;;;;;;3.47;3.17;;;;;;;21.68;61.20;99058.53;2053572;28;20037;-65
2022/10/11 05:00:36;;;;;;;3.72;3.28;;;;;;;21.67;61.26;99056.84;2054092;28;20094;-65
2022/10/11 05:01:38;;;;;;;4.30;3.90;;;;;;;21.68;61.21;99057.72;2055211;28;20048;-67
2022/10/11 05:02:39;;;;;;;4.40;3.38;;;;;;;21.68;61.35;99052.31;2053129;28;20058;-66
2022/10/11 05:03:41;;;;;;;4.15;3.75;;;;;;;21.67;61.11;99054.16;2053231;28;20598;-65
2022/10/11 05:04:42;;;;;;;4.28;3.88;;;;;;;21.67;61.22;99056.03;2053291;28;20050;-66